Terminal Aerodrome Forecast
Issued by NWS

Home | Current Version | Previous Version | Text Only | Print | Product List | Glossary On
Versions: 1 2 3 4 5 6 7 8 9 10 11 12 13 14 15 16 17 18
000
FTAK31 PAJN 241948 AAA
TAFAYA
TAF AMD
PAYA 241948Z 2420/2518 07008KT P6SM -SHRA VCTS BKN030 OVC045CB
      WS020/13025KT
      TEMPO 2420/2424 4SM SHRA BR BKN020 BKN025 OVC040
     FM250300 14007KT 6SM -SHRA BR OVC025
     FM251200 VRB04KT 6SM -SHRA BCFG FEW010 OVC025
      AMD LTD TO CLD VIS AND WIND 2501/2509=

USA.gov is the U.S. government's official web portal to all federal, state and local government web resources and services.